createdAt,value
2022-12-25T00:01:09.584Z,6.13
2022-12-25T00:03:37.270Z,6.20
2022-12-25T00:06:04.280Z,7.47
2022-12-25T00:08:31.853Z,5.93
2022-12-25T00:11:04.259Z,8.23
2022-12-25T00:13:31.075Z,9.45
2022-12-25T00:15:57.965Z,7.38
2022-12-25T00:18:24.826Z,8.05
2022-12-25T00:20:59.643Z,6.70
2022-12-25T00:23:27.439Z,7.15
2022-12-25T00:25:54.861Z,8.93
2022-12-25T00:28:22.513Z,7.07
2022-12-25T00:30:49.363Z,7.68
2022-12-25T00:33:16.263Z,9.00
2022-12-25T00:35:42.998Z,7.65
2022-12-25T00:38:10.177Z,7.70
2022-12-25T00:40:44.083Z,6.38
2022-12-25T00:43:11.525Z,7.88
2022-12-25T00:45:38.120Z,8.52
2022-12-25T00:48:04.823Z,7.32
2022-12-25T00:50:31.369Z,6.45
2022-12-25T00:52:58.362Z,8.75
2022-12-25T00:55:25.410Z,5.13
2022-12-25T00:57:52.482Z,9.73
2022-12-25T01:00:19.744Z,8.50
2022-12-25T01:02:47.481Z,7.18
2022-12-25T01:05:14.683Z,5.95
2022-12-25T01:07:41.236Z,6.60
2022-12-25T01:10:23.081Z,7.30
2022-12-25T01:12:50.813Z,7.32
2022-12-25T01:15:18.374Z,6.95
2022-12-25T01:17:45.353Z,8.55
2022-12-25T01:20:14.515Z,7.30
2022-12-25T01:22:41.588Z,9.02
2022-12-25T01:25:09.207Z,5.50
2022-12-25T01:27:35.829Z,10.27
2022-12-25T01:30:02.441Z,6.43
2022-12-25T01:32:29.026Z,5.65
2022-12-25T01:34:56.284Z,7.07
2022-12-25T01:37:24.756Z,9.50
2022-12-25T01:39:51.598Z,7.05
2022-12-25T01:42:23.788Z,10.10
2022-12-25T01:44:50.271Z,6.97
2022-12-25T01:47:18.906Z,7.40
2022-12-25T01:49:50.188Z,6.68
2022-12-25T01:52:24.146Z,8.45
2022-12-25T01:54:57.991Z,5.57
2022-12-25T01:57:29.216Z,6.00
2022-12-25T01:59:57.663Z,5.93
2022-12-25T02:02:25.338Z,8.43
2022-12-25T02:04:57.772Z,6.72
2022-12-25T02:07:26.834Z,8.98
2022-12-25T02:09:54.023Z,4.72
2022-12-25T02:12:24.907Z,7.72
2022-12-25T02:14:59.622Z,6.75
2022-12-25T02:17:50.660Z,7.30
2022-12-25T02:20:28.407Z,9.80
2022-12-25T02:23:39.412Z,4.75
2022-12-25T02:26:18.395Z,7.22
2022-12-25T02:29:03.803Z,7.80
2022-12-25T02:31:53.807Z,5.47
2022-12-25T02:34:20.419Z,10.43
2022-12-25T02:37:00.992Z,6.05
2022-12-25T02:40:00.166Z,7.88
2022-12-25T02:43:16.427Z,8.70
2022-12-25T02:46:10.726Z,6.82
2022-12-25T02:49:03.341Z,6.38
2022-12-25T02:51:51.885Z,7.20
2022-12-25T02:54:43.832Z,8.07
2022-12-25T02:57:33.264Z,4.55
2022-12-25T03:00:20.688Z,5.00
2022-12-25T03:03:07.840Z,4.05
2022-12-25T03:05:57.487Z,5.35
2022-12-25T03:08:47.307Z,6.22
2022-12-25T03:11:32.098Z,5.95
2022-12-25T03:14:26.385Z,4.78
2022-12-25T03:16:58.982Z,6.03
2022-12-25T03:19:52.922Z,6.30
2022-12-25T03:22:43.717Z,7.38
2022-12-25T03:25:29.156Z,5.45
2022-12-25T03:27:57.529Z,5.47
2022-12-25T03:30:48.420Z,7.40
2022-12-25T03:33:44.904Z,5.78
2022-12-25T03:36:30.977Z,4.93
2022-12-25T03:39:21.352Z,7.43
2022-12-25T03:42:16.176Z,5.20
2022-12-25T03:45:27.834Z,4.53
2022-12-25T03:48:15.689Z,6.35
2022-12-25T03:51:10.544Z,6.13
2022-12-25T03:54:09.039Z,4.85
2022-12-25T03:56:56.163Z,4.63
2022-12-25T03:59:43.351Z,9.20
2022-12-25T04:02:28.971Z,6.53
2022-12-25T04:05:14.355Z,4.90
2022-12-25T04:07:59.877Z,3.50
2022-12-25T04:10:45.227Z,3.63
2022-12-25T04:13:30.583Z,6.47
2022-12-25T04:16:15.775Z,6.23
2022-12-25T04:19:00.946Z,5.28
2022-12-25T04:21:46.323Z,4.63
2022-12-25T04:24:31.613Z,5.67
2022-12-25T04:27:16.872Z,4.15
2022-12-25T04:30:02.067Z,4.00
2022-12-25T04:32:47.207Z,7.72
2022-12-25T04:35:32.313Z,4.28
2022-12-25T04:37:59.420Z,3.45
2022-12-25T04:40:26.495Z,3.33
2022-12-25T04:42:53.496Z,7.10
2022-12-25T04:45:20.566Z,3.67
2022-12-25T04:47:47.740Z,4.47
2022-12-25T04:50:14.968Z,3.90
2022-12-25T04:52:41.771Z,3.60
2022-12-25T04:55:10.327Z,4.90
2022-12-25T04:57:38.140Z,2.80
2022-12-25T05:00:06.755Z,3.80
2022-12-25T05:02:33.995Z,4.18
2022-12-25T05:05:01.335Z,4.20
2022-12-25T05:07:28.525Z,4.90
2022-12-25T05:09:55.595Z,5.07
2022-12-25T05:12:22.175Z,4.55
2022-12-25T05:14:48.783Z,5.45
2022-12-25T05:17:16.034Z,6.03
2022-12-25T05:19:43.311Z,4.15
2022-12-25T05:22:10.606Z,6.45
2022-12-25T05:24:37.209Z,4.25
2022-12-25T05:27:04.332Z,4.20
2022-12-25T05:29:30.960Z,3.55
2022-12-25T05:31:58.165Z,5.53
2022-12-25T05:34:25.621Z,5.45
2022-12-25T05:36:53.032Z,5.10
2022-12-25T05:39:20.443Z,3.65
2022-12-25T05:41:47.644Z,4.55
2022-12-25T05:44:14.640Z,3.85
2022-12-25T05:46:41.475Z,4.63
2022-12-25T05:49:09.058Z,5.93
2022-12-25T05:51:36.327Z,3.97
2022-12-25T05:54:03.496Z,3.47
2022-12-25T05:56:30.859Z,4.25
2022-12-25T05:58:58.295Z,4.53
2022-12-25T06:01:27.814Z,3.38
2022-12-25T06:03:55.281Z,5.95
2022-12-25T06:06:22.464Z,6.20
2022-12-25T06:08:53.679Z,3.97
2022-12-25T06:11:20.888Z,5.15
2022-12-25T06:13:54.623Z,4.95
2022-12-25T06:16:21.556Z,3.88
2022-12-25T06:18:50.569Z,4.18
2022-12-25T06:21:17.778Z,5.28
2022-12-25T06:23:46.126Z,6.35
2022-12-25T06:26:16.889Z,5.90
2022-12-25T06:28:44.290Z,3.03
2022-12-25T06:31:16.794Z,3.90
2022-12-25T06:33:44.256Z,2.92
2022-12-25T06:36:18.204Z,2.22
2022-12-25T06:38:45.612Z,3.50
2022-12-25T06:41:21.201Z,6.18
2022-12-25T06:43:49.866Z,2.47
2022-12-25T06:46:18.040Z,4.28
2022-12-25T06:48:50.969Z,6.00
2022-12-25T06:51:20.151Z,3.75
2022-12-25T06:53:48.654Z,4.32
2022-12-25T06:56:18.605Z,2.75
2022-12-25T06:58:50.904Z,3.22
2022-12-25T07:01:27.762Z,2.55
2022-12-25T07:04:01.878Z,4.20
2022-12-25T07:06:28.898Z,2.28
2022-12-25T07:08:56.117Z,19.00
2022-12-25T07:11:23.081Z,2.95
2022-12-25T07:13:49.802Z,2.33
2022-12-25T07:16:17.066Z,5.15
2022-12-25T07:18:44.515Z,3.80
2022-12-25T07:21:16.636Z,3.53
2022-12-25T07:23:44.838Z,3.70
2022-12-25T07:26:12.809Z,2.67
2022-12-25T07:28:39.753Z,4.20
2022-12-25T07:31:15.176Z,2.35
2022-12-25T07:33:42.671Z,2.05
2022-12-25T07:36:12.817Z,1.80
2022-12-25T07:38:43.676Z,2.78
2022-12-25T07:41:13.074Z,1.95
2022-12-25T07:43:40.573Z,3.83
2022-12-25T07:46:08.193Z,3.55
2022-12-25T07:48:36.104Z,2.40
2022-12-25T07:51:06.519Z,3.60
2022-12-25T07:53:34.162Z,3.08
2022-12-25T07:56:03.675Z,4.63
2022-12-25T07:58:31.219Z,2.58
2022-12-25T08:01:04.898Z,1.88
2022-12-25T08:03:32.724Z,1.38
2022-12-25T08:06:05.469Z,2.83
2022-12-25T08:08:32.512Z,3.03
2022-12-25T08:11:02.875Z,1.48
2022-12-25T08:13:34.126Z,2.20
2022-12-25T08:16:03.618Z,2.83
2022-12-25T08:18:32.465Z,5.47
2022-12-25T08:21:07.744Z,2.70
2022-12-25T08:23:39.272Z,2.33
2022-12-25T08:26:12.212Z,3.38
2022-12-25T08:28:41.710Z,2.70
2022-12-25T08:31:22.298Z,9.00
2022-12-25T08:37:15.021Z,2.15
2022-12-25T08:40:03.423Z,2.72
2022-12-25T08:42:41.375Z,2.40
2022-12-25T08:45:13.883Z,3.03
2022-12-25T08:47:41.269Z,3.55
2022-12-25T08:50:08.556Z,2.42
2022-12-25T08:52:35.949Z,4.32
2022-12-25T08:55:02.616Z,4.57
2022-12-25T08:57:29.781Z,3.25
2022-12-25T08:59:56.585Z,3.63
2022-12-25T09:02:23.377Z,2.80
2022-12-25T09:04:50.698Z,1.67
2022-12-25T09:07:20.762Z,3.17
2022-12-25T09:09:47.342Z,3.47
2022-12-25T09:12:13.932Z,2.70
2022-12-25T09:14:40.518Z,4.40
2022-12-25T09:17:07.817Z,1.95
2022-12-25T09:19:35.370Z,1.85
2022-12-25T09:22:02.129Z,2.40
2022-12-25T09:24:28.737Z,2.33
2022-12-25T09:26:55.890Z,2.75
2022-12-25T09:29:23.046Z,3.83
2022-12-25T09:31:57.755Z,1.95
2022-12-25T09:34:24.924Z,1.92
2022-12-25T09:36:51.456Z,1.35
2022-12-25T09:39:18.633Z,2.50
2022-12-25T09:42:00.045Z,2.70
2022-12-25T09:44:34.946Z,2.65
2022-12-25T09:47:08.274Z,3.90
2022-12-25T09:49:40.849Z,1.05
2022-12-25T09:52:59.215Z,5.35
2022-12-25T09:55:29.464Z,1.58
2022-12-25T09:58:01.930Z,1.40
2022-12-25T10:00:57.512Z,5.40
2022-12-25T10:03:46.284Z,1.52
2022-12-25T10:06:27.084Z,3.03
2022-12-25T10:09:31.258Z,1.10
2022-12-25T10:12:00.916Z,1.50
2022-12-25T10:14:42.568Z,1.10
2022-12-25T10:17:43.216Z,1.50
2022-12-25T10:20:28.374Z,1.50
2022-12-25T10:22:59.534Z,1.38
2022-12-25T10:25:26.589Z,3.05
2022-12-25T10:27:58.289Z,2.50
2022-12-25T10:30:27.143Z,1.85
2022-12-25T10:32:57.133Z,3.20
2022-12-25T10:35:27.773Z,1.38
2022-12-25T10:38:06.196Z,1.55
2022-12-25T10:40:38.657Z,1.60
2022-12-25T10:43:34.460Z,1.63
2022-12-25T10:46:01.172Z,2.73
2022-12-25T10:48:32.930Z,2.20
2022-12-25T10:50:59.508Z,1.30
2022-12-25T10:53:29.328Z,6.53
2022-12-25T10:56:21.970Z,6.57
2022-12-25T10:58:48.608Z,3.58
2022-12-25T11:01:16.235Z,3.15
2022-12-25T11:03:51.777Z,1.90
2022-12-25T11:06:27.033Z,5.13
2022-12-25T11:09:03.594Z,2.47
2022-12-25T11:11:31.468Z,2.83
2022-12-25T11:14:02.223Z,1.27
2022-12-25T11:16:41.085Z,2.40
2022-12-25T11:19:32.511Z,2.30
2022-12-25T11:22:02.181Z,2.83
2022-12-25T11:24:31.136Z,0.98
2022-12-25T11:27:01.110Z,1.35
2022-12-25T11:29:45.055Z,1.13
2022-12-25T11:32:29.228Z,1.77
2022-12-25T11:34:57.672Z,2.00
2022-12-25T11:37:33.431Z,3.05
2022-12-25T11:40:00.836Z,1.95
2022-12-25T11:42:34.947Z,2.38
2022-12-25T11:45:18.465Z,0.98
2022-12-25T11:47:46.991Z,0.98
2022-12-25T11:50:14.689Z,1.63
2022-12-25T11:52:46.297Z,2.42
2022-12-25T11:55:19.399Z,1.52
2022-12-25T11:57:52.112Z,1.48
2022-12-25T12:00:19.873Z,1.55
2022-12-25T12:03:19.065Z,2.05
2022-12-25T12:06:08.484Z,2.08
2022-12-25T12:08:36.405Z,3.13
2022-12-25T12:11:16.582Z,1.00
2022-12-25T12:13:58.612Z,0.60
2022-12-25T12:16:29.614Z,1.08
2022-12-25T12:18:57.021Z,1.35
2022-12-25T12:21:27.709Z,2.10
2022-12-25T12:24:03.669Z,1.25
2022-12-25T12:26:36.816Z,1.88
2022-12-25T12:29:06.333Z,1.15
2022-12-25T12:31:45.531Z,0.88
2022-12-25T12:34:43.430Z,0.90
2022-12-25T12:37:28.150Z,1.77
2022-12-25T12:39:55.803Z,0.82
2022-12-25T12:42:27.389Z,1.02
2022-12-25T12:45:06.379Z,2.25
2022-12-25T12:47:42.364Z,0.70
2022-12-25T12:50:37.434Z,1.33
2022-12-25T12:53:34.233Z,1.70
2022-12-25T12:58:50.809Z,1.45
2022-12-25T13:01:27.277Z,1.60
2022-12-25T13:04:03.518Z,0.60
2022-12-25T13:06:33.725Z,0.82
2022-12-25T13:09:11.760Z,1.38
2022-12-25T13:11:45.204Z,0.52
2022-12-25T13:14:19.628Z,1.25
2022-12-25T13:16:50.074Z,0.98
2022-12-25T13:19:23.742Z,1.13
2022-12-25T13:22:03.147Z,0.65
2022-12-25T13:24:38.709Z,0.77
2022-12-25T13:27:34.775Z,1.45
2022-12-25T13:30:19.069Z,1.10
2022-12-25T13:32:46.363Z,1.13
2022-12-25T13:35:15.590Z,1.13
2022-12-25T13:37:44.208Z,0.80
2022-12-25T13:40:22.069Z,0.98
2022-12-25T13:42:50.416Z,0.70
2022-12-25T13:45:26.233Z,0.93
2022-12-25T13:50:30.803Z,1.30
2022-12-25T13:53:10.248Z,0.88
2022-12-25T13:55:37.064Z,1.40
2022-12-25T13:58:15.870Z,1.40
2022-12-25T14:00:49.996Z,1.33
2022-12-25T14:03:26.651Z,1.17
2022-12-25T14:05:58.310Z,0.60
2022-12-25T14:08:28.251Z,1.27
2022-12-25T14:10:55.987Z,1.00
2022-12-25T14:13:27.320Z,1.05
2022-12-25T14:15:56.626Z,0.77
2022-12-25T14:18:25.516Z,1.63
2022-12-25T14:21:04.033Z,2.38
2022-12-25T14:23:45.950Z,1.23
2022-12-25T14:26:33.550Z,0.65
2022-12-25T14:29:25.025Z,9.18
2022-12-25T14:31:58.135Z,0.80
2022-12-25T14:34:27.719Z,1.33
2022-12-25T14:36:56.831Z,2.03
2022-12-25T14:39:38.877Z,0.95
2022-12-25T14:42:21.816Z,3.15
2022-12-25T14:45:01.610Z,1.08
2022-12-25T14:47:33.639Z,1.50
2022-12-25T14:50:00.341Z,1.13
2022-12-25T14:52:49.126Z,1.50
2022-12-25T14:55:21.719Z,4.18
2022-12-25T14:58:00.926Z,1.63
2022-12-25T15:00:39.313Z,0.70
2022-12-25T15:03:17.305Z,0.85
2022-12-25T15:05:44.147Z,1.27
2022-12-25T15:08:15.159Z,0.85
2022-12-25T15:10:59.809Z,2.03
2022-12-25T15:16:08.994Z,1.02
2022-12-25T15:18:42.438Z,1.05
2022-12-25T15:21:32.298Z,0.85
2022-12-25T15:24:00.892Z,0.77
2022-12-25T15:26:30.551Z,1.05
2022-12-25T15:28:58.429Z,1.80
2022-12-25T15:31:28.826Z,1.48
2022-12-25T15:33:57.541Z,1.55
2022-12-25T15:36:25.430Z,0.88
2022-12-25T15:38:52.648Z,1.50
2022-12-25T15:41:44.018Z,0.60
2022-12-25T15:44:12.109Z,0.63
2022-12-25T15:46:38.921Z,1.10
2022-12-25T15:49:06.011Z,2.20
2022-12-25T15:51:32.789Z,1.00
2022-12-25T15:53:59.741Z,1.05
2022-12-25T15:56:27.116Z,1.27
2022-12-25T15:58:53.786Z,1.33
2022-12-25T16:01:23.380Z,1.00
2022-12-25T16:03:50.050Z,0.85
2022-12-25T16:06:18.473Z,1.00
2022-12-25T16:08:45.837Z,1.50
2022-12-25T16:11:12.498Z,0.82
2022-12-25T16:13:39.641Z,1.00
2022-12-25T16:16:07.146Z,0.90
2022-12-25T16:18:33.952Z,1.98
2022-12-25T16:21:00.608Z,1.50
2022-12-25T16:23:27.256Z,1.23
2022-12-25T16:25:54.014Z,1.50
2022-12-25T16:28:20.662Z,1.20
2022-12-25T16:30:47.965Z,1.27
2022-12-25T16:33:15.423Z,1.75
2022-12-25T16:35:42.657Z,0.98
2022-12-25T16:38:09.378Z,2.38
2022-12-25T16:40:38.246Z,0.75
2022-12-25T16:43:05.380Z,0.90
2022-12-25T16:45:32.077Z,1.00
2022-12-25T16:47:58.750Z,0.70
2022-12-25T16:50:27.336Z,3.55
2022-12-25T16:52:54.624Z,1.08
2022-12-25T16:55:27.726Z,0.90
2022-12-25T16:57:59.222Z,0.80
2022-12-25T17:00:26.138Z,0.75
2022-12-25T17:02:53.270Z,0.80
2022-12-25T17:05:20.120Z,2.38
2022-12-25T17:07:47.119Z,1.23
2022-12-25T17:10:14.653Z,0.85
2022-12-25T17:12:42.523Z,0.95
2022-12-25T17:15:09.666Z,1.17
2022-12-25T17:17:36.382Z,1.60
2022-12-25T17:20:09.619Z,1.20
2022-12-25T17:22:36.927Z,1.33
2022-12-25T17:25:11.370Z,1.15
2022-12-25T17:27:49.552Z,1.23
2022-12-25T17:30:16.715Z,0.93
2022-12-25T17:32:49.787Z,2.10
2022-12-25T17:35:17.921Z,2.20
2022-12-25T17:38:03.608Z,0.80
2022-12-25T17:40:30.254Z,0.80
2022-12-25T17:42:56.832Z,1.13
2022-12-25T17:45:34.131Z,1.20
2022-12-25T17:48:04.526Z,1.83
2022-12-25T17:50:34.642Z,1.42
2022-12-25T17:53:06.415Z,1.00
2022-12-25T17:55:42.311Z,1.27
2022-12-25T18:00:46.259Z,1.00
2022-12-25T18:03:17.027Z,1.10
2022-12-25T18:05:46.868Z,0.98
2022-12-25T18:08:21.819Z,0.90
2022-12-25T18:10:49.137Z,1.30
2022-12-25T18:13:23.650Z,1.15
2022-12-25T18:16:03.708Z,0.93
2022-12-25T18:18:38.069Z,1.17
2022-12-25T18:21:14.556Z,1.90
2022-12-25T18:23:54.338Z,1.50
2022-12-25T18:26:33.587Z,1.80
2022-12-25T18:29:06.282Z,1.33
2022-12-25T18:31:33.586Z,1.13
2022-12-25T18:34:15.583Z,1.15
2022-12-25T18:36:50.938Z,1.80
2022-12-25T18:39:17.814Z,1.25
2022-12-25T18:42:14.322Z,1.60
2022-12-25T18:45:08.586Z,2.13
2022-12-25T18:47:41.350Z,1.52
2022-12-25T18:50:19.618Z,1.70
2022-12-25T18:52:47.644Z,2.05
2022-12-25T18:55:18.052Z,1.50
2022-12-25T18:57:44.836Z,1.48
2022-12-25T19:00:11.645Z,1.70
2022-12-25T19:02:41.185Z,1.73
2022-12-25T19:05:08.175Z,1.60
2022-12-25T19:07:35.320Z,1.35
2022-12-25T19:10:02.124Z,1.55
2022-12-25T19:12:28.721Z,1.70
2022-12-25T19:15:01.368Z,1.98
2022-12-25T19:17:37.156Z,1.80
2022-12-25T19:22:45.980Z,1.65
2022-12-25T19:25:15.693Z,2.90
2022-12-25T19:27:43.517Z,3.42
2022-12-25T19:30:11.140Z,3.72
2022-12-25T19:32:37.891Z,5.72
2022-12-25T19:35:09.100Z,2.67
2022-12-25T19:37:38.388Z,1.60
2022-12-25T19:40:05.555Z,2.60
2022-12-25T19:42:35.708Z,2.13
2022-12-25T19:45:09.012Z,4.45
2022-12-25T19:47:35.699Z,2.83
2022-12-25T19:50:03.841Z,2.88
2022-12-25T19:52:30.521Z,2.78
2022-12-25T19:54:57.256Z,2.50
2022-12-25T19:57:24.435Z,2.70
2022-12-25T20:00:02.807Z,3.42
2022-12-25T20:02:36.092Z,3.63
2022-12-25T20:05:03.275Z,2.40
2022-12-25T20:07:31.126Z,2.35
2022-12-25T20:09:59.797Z,6.38
2022-12-25T20:12:26.375Z,3.17
2022-12-25T20:14:53.165Z,3.80
2022-12-25T20:17:20.017Z,2.50
2022-12-25T20:19:46.671Z,2.22
2022-12-25T20:22:16.865Z,3.28
2022-12-25T20:24:43.589Z,2.25
2022-12-25T20:27:10.988Z,2.83
2022-12-25T20:29:39.770Z,4.05
2022-12-25T20:32:11.322Z,4.38
2022-12-25T20:34:44.631Z,3.42
2022-12-25T20:37:14.440Z,3.08
2022-12-25T20:39:41.173Z,3.25
2022-12-25T20:42:14.350Z,2.78
2022-12-25T20:44:43.205Z,3.50
2022-12-25T20:47:13.359Z,3.20
2022-12-25T20:49:40.964Z,3.65
2022-12-25T20:52:13.632Z,3.13
2022-12-25T20:54:41.840Z,2.67
2022-12-25T20:57:08.852Z,2.88
2022-12-25T20:59:38.571Z,2.75
2022-12-25T21:02:06.216Z,3.13
2022-12-25T21:04:40.214Z,2.33
2022-12-25T21:07:09.979Z,2.58
2022-12-25T21:09:36.951Z,3.55
2022-12-25T21:12:06.917Z,3.13
2022-12-25T21:14:34.298Z,4.15
2022-12-25T21:17:01.876Z,2.83
2022-12-25T21:19:29.654Z,3.63
2022-12-25T21:21:57.149Z,3.15
2022-12-25T21:24:24.479Z,3.25
2022-12-25T21:26:54.026Z,3.28
2022-12-25T21:29:24.171Z,2.92
2022-12-25T21:32:12.501Z,4.07
2022-12-25T21:34:42.645Z,4.78
2022-12-25T21:37:17.260Z,2.60
2022-12-25T21:39:48.685Z,5.03
2022-12-25T21:42:15.282Z,3.95
2022-12-25T21:44:41.876Z,6.57
2022-12-25T21:47:19.727Z,4.80
2022-12-25T21:50:13.760Z,3.70
2022-12-25T21:53:00.473Z,3.45
2022-12-25T21:55:28.366Z,3.60
2022-12-25T21:57:55.587Z,3.30
2022-12-25T22:00:22.904Z,4.95
2022-12-25T22:02:53.321Z,4.13
2022-12-25T22:05:38.911Z,3.53
2022-12-25T22:08:14.760Z,4.35
2022-12-25T22:13:28.566Z,5.05
2022-12-25T22:16:22.020Z,3.42
2022-12-25T22:19:07.707Z,3.58
2022-12-25T22:21:34.912Z,3.65
2022-12-25T22:24:01.489Z,4.40
2022-12-25T22:26:30.604Z,3.65
2022-12-25T22:28:57.221Z,3.75
2022-12-25T22:31:24.312Z,5.35
2022-12-25T22:33:51.499Z,2.92
2022-12-25T22:36:18.528Z,3.47
2022-12-25T22:38:45.628Z,3.03
2022-12-25T22:41:12.576Z,4.18
2022-12-25T22:44:15.329Z,3.97
2022-12-25T22:46:26.331Z,4.22
2022-12-25T22:48:53.424Z,4.18
2022-12-25T22:51:20.475Z,3.40
2022-12-25T22:53:47.553Z,3.38
2022-12-25T22:56:14.331Z,3.33
2022-12-25T22:58:40.883Z,3.97
2022-12-25T23:01:11.172Z,3.78
2022-12-25T23:03:38.479Z,3.92
2022-12-25T23:06:05.736Z,3.28
2022-12-25T23:08:32.330Z,4.07
2022-12-25T23:11:05.530Z,3.95
2022-12-25T23:13:50.833Z,4.15
2022-12-25T23:16:17.930Z,3.08
2022-12-25T23:19:03.245Z,3.67
2022-12-25T23:21:48.663Z,5.30
2022-12-25T23:24:33.894Z,5.43
2022-12-25T23:27:01.052Z,3.47
2022-12-25T23:29:36.967Z,3.53
2022-12-25T23:34:32.581Z,5.57
2022-12-25T23:37:00.059Z,4.18
2022-12-25T23:39:28.684Z,6.20
2022-12-25T23:41:56.185Z,4.75
2022-12-25T23:44:22.877Z,3.83
2022-12-25T23:46:52.713Z,4.40
2022-12-25T23:49:21.865Z,4.85
2022-12-25T23:51:48.782Z,5.10
2022-12-25T23:54:19.013Z,6.28
2022-12-25T23:56:46.294Z,5.22
2022-12-25T23:59:13.365Z,5.63
